Nearby METAR Reports

 

KCFV - Coffeyville, Kansas, USA
Distance from station: ENE 93mi, 150km
Updated: Mon, 07-22-2019 2:13am CDT
Overcast
Overcast
 Wind from S
Wind: S 5 mph , 7 km/h
Temperature: 72°F , 22°C
Dew Point: 70°F , 21°C
Humidity: 94%
Barometer: 1015.6 hPa
Clouds: Overcast
Visibility: 10 miles , 16 km
Cloud details: Mostly cloudy 1100 ft
Overcast 1600 ft
2019/07/22 07:13 KCFV 220713Z AUTO 19004KT 10SM BKN011 OVC016 22/21 A2999 RMK AO2 LTG DSNT S T02220211
KIDP - Independence, Kansas, USA
Distance from station: NE 86mi, 138km
Updated: Mon, 07-22-2019 2:35am CDT
Overcast
Overcast
 Wind from NNE
Wind: NNE 8 mph , 13 km/h
Temperature: 73°F , 23°C
Dew Point: 72°F , 22°C
Humidity: 94%
Barometer: 1016.3 hPa
Clouds: Overcast
Visibility: 10 miles , 16 km
Cloud details: Overcast 1400 ft
2019/07/22 07:35 KIDP 220735Z AUTO 02007KT 10SM OVC014 23/22 A3001 RMK AO2 T02310220
KIAB - Mcconnell Afb, Kansas, USA
Distance from station: N 84mi, 135km
Updated: Mon, 07-22-2019 2:10am CDT
Mostly cloudy
Mostly cloudy
 Wind from NNE
Wind: NNE 18 mph , 30 km/h, Gust: 25 mph , 41 km/h
Temperature: 70°F , 21°C
Dew Point: 64°F , 18°C
Humidity: 83%
Barometer: 1019 hPa
Clouds: Mostly cloudy
Visibility: 10 miles , 16 km
Cloud details: Mostly cloudy 1100 ft
2019/07/22 07:10 KIAB 220710Z AUTO 02016G22KT 10SM BKN011 21/18 A3009 RMK AO2 SLP178
 
KICT - Wichita, Kansas, USA
Distance from station: NNW 88mi, 142km
Updated: Mon, 07-22-2019 2:12am CDT
Mostly cloudy
Mostly cloudy
 Wind from N
Wind: N 14 mph , 22 km/h
Temperature: 72°F , 22°C
Dew Point: 64°F , 18°C
Humidity: 78%
Barometer: 1018.6 hPa
Clouds: Mostly cloudy
Visibility: 10 miles , 16 km
Cloud details: Mostly cloudy 1300 ft
Mostly cloudy 16000 ft
Mostly cloudy 22000 ft
2019/07/22 07:12 KICT 220712Z 01012KT 10SM BKN013 BKN160 BKN220 22/18 A3008 RMK AO2 T02220183 $
KAAO - Wichita/Jabara, Kansas, USA
Distance from station: N 93mi, 149km
Updated: Mon, 07-22-2019 1:54am CDT
Mostly cloudy
Mostly cloudy
 Wind from N
Wind: N 14 mph , 22 km/h
Temperature: 70°F , 21°C
Dew Point: 66°F , 19°C
Humidity: 88%
Barometer: 1018.6 hPa
Clouds: Mostly cloudy
Visibility: 10 miles , 16 km
Cloud details: Mostly cloudy 1100 ft
2019/07/22 06:54 KAAO 220654Z AUTO 01012KT 10SM BKN011 21/19 A3008 RMK AO2 SLP172 T02060189 $
KWLD - Winfield/Arkansa, Kansas, USA
Distance from station: N 52mi, 84km
Updated: Mon, 07-22-2019 2:23am CDT
Light rain, Overcast
Light rain, Overcast
 Wind from N
Wind: N 14 mph , 22 km/h
Temperature: 72°F , 22°C
Dew Point: 66°F , 19°C
Humidity: 83%
Barometer: 1018.6 hPa
Summary: Light rain
Clouds: Overcast
Visibility: 7 miles , 11 km
Cloud details: Overcast 1700 ft
2019/07/22 07:23 KWLD 220723Z AUTO 01012KT 7SM -RA OVC017 22/19 A3008 RMK AO2 RAB22 P0000 T02170194
 
KAVK - Alva, Oklahoma, USA
Distance from station: WNW 94mi, 152km
Updated: Mon, 07-22-2019 2:35am CDT
Overcast
Overcast
 Wind from NNE
Wind: NNE 12 mph , 19 km/h, Gust: 20 mph , 31 km/h
Temperature: 72°F , 22°C
Dew Point: 64°F , 18°C
Humidity: 78%
Barometer: 1019.6 hPa
Clouds: Overcast
Visibility: 10 miles , 16 km
Cloud details: Overcast 7000 ft
2019/07/22 07:35 KAVK 220735Z AUTO 02010G17KT 10SM OVC070 22/18 A3011 RMK AO2
KBVO - Bartlesville, Oklahoma, USA
Distance from station: ENE 61mi, 98km
Updated: Mon, 07-22-2019 2:20am CDT
Overcast
Overcast
 Wind from calm
Wind: Calm
Temperature: 72°F , 22°C
Dew Point: 72°F , 22°C
Humidity: 100%
Barometer: 1016.3 hPa
Clouds: Overcast
Visibility: 10 miles , 16 km
Cloud details: Mostly cloudy 1500 ft
Overcast 7500 ft
2019/07/22 07:20 KBVO 220720Z AUTO 00000KT 10SM BKN015 OVC075 22/22 A3001 RMK AO2 LTG DSNT E-SW TSE0654 T02220217 $
KBKN - Blackwell, Oklahoma, USA
Distance from station: NW 29mi, 47km
Updated: Mon, 07-22-2019 2:35am CDT
Overcast
Overcast
 Wind from N
Wind: N 15 mph , 24 km/h
Temperature: 75°F , 24°C
Dew Point: 73°F , 23°C
Humidity: 94%
Barometer: 1018.6 hPa
Clouds: Overcast
Visibility: 10 miles , 16 km
Cloud details: Overcast 1300 ft
2019/07/22 07:35 KBKN 220735Z AUTO 01013KT 10SM OVC013 24/23 A3008 RMK AO2
 
KGCM - Claremore, Oklahoma, USA
Distance from station: E 86mi, 138km
Updated: Mon, 07-22-2019 2:35am CDT
Rain, Overcast
Rain, Overcast
 Wind from WSW
Wind: WSW 7 mph , 11 km/h, Gust: 14 mph , 22 km/h
Temperature: 70°F , 21°C
Dew Point: 68°F , 20°C
Humidity: 94%
Barometer: 1015.9 hPa
Summary: Rain
Clouds: Overcast
Visibility: 1 1/4 miles , 2 km
Cloud details: Mostly cloudy 900 ft
Mostly cloudy 2400 ft
Overcast 3800 ft
2019/07/22 07:35 KGCM 220735Z AUTO 24006G12KT 1 1/4SM RA BKN009 BKN024 OVC038 21/20 A3000 RMK AO2 P0113
KCQB - Chandler, Oklahoma, USA
Distance from station: SSE 50mi, 80km
Updated: Mon, 07-22-2019 2:35am CDT
Clear
Clear
 Wind from N
Wind: N 6 mph , 9 km/h
Temperature: 72°F , 22°C
Dew Point: 70°F , 21°C
Humidity: 94%
Barometer: 1015.6 hPa
Clouds: Clear
Visibility: 10 miles , 16 km
2019/07/22 07:35 KCQB 220735Z AUTO 35005KT 10SM CLR 22/21 A2999 RMK AO2 LTG DSNT W T02230214
KCUH - Cushing, Oklahoma, USA
Distance from station: SSE 35mi, 57km
Updated: Mon, 07-22-2019 2:35am CDT
Partly cloudy
Partly cloudy
 Wind from NNE
Wind: NNE 5 mph , 7 km/h
Temperature: 73°F , 23°C
Dew Point: 72°F , 22°C
Humidity: 94%
Barometer: 1015.2 hPa
Clouds: Partly cloudy
Visibility: 10 miles , 16 km
Cloud details: Partly cloudy 10000 ft
2019/07/22 07:35 KCUH 220735Z AUTO 02004KT 10SM SCT100 23/22 A2998 RMK AO2 LTG DSNT E AND W T02330215
 
KRQO - El Reno Muni, Oklahoma, USA
Distance from station: SW 85mi, 137km
Updated: Mon, 07-22-2019 2:30am CDT
Clear
Clear
 Wind from N
Wind: N 14 mph , 22 km/h, Gust: 21 mph , 33 km/h
Temperature: 75°F , 24°C
Dew Point: 68°F , 20°C
Humidity: 78%
Barometer: 1017.6 hPa
Clouds: Clear
Visibility: 7 miles , 11 km
2019/07/22 07:30 KRQO 220730Z AUTO 36012G18KT 7SM CLR 24/20 A3005 RMK AO2 T02440198
KEND - Enid/Vance Afb, Oklahoma, USA
Distance from station: W 50mi, 81km
Updated: Mon, 07-22-2019 2:41am CDT
Mostly cloudy
Mostly cloudy
 Wind from N
Wind: N 16 mph , 26 km/h, Gust: 25 mph , 41 km/h
Temperature: 73°F , 23°C
Dew Point: 73°F , 23°C
Humidity: 100%
Barometer: 1017.9 hPa
Clouds: Mostly cloudy
Visibility: 10 miles , 16 km
Cloud details: Mostly cloudy 1500 ft
2019/07/22 07:41 KEND 220741Z AUTO 01014G22KT 10SM BKN015 23/23 A3006 RMK AO2 BKN V FEW SLP166 $
KWDG - Enid/Woodring, Oklahoma, USA
Distance from station: W 42mi, 67km
Updated: Mon, 07-22-2019 2:35am CDT
Mostly cloudy
Mostly cloudy
 Wind from NNE
Wind: NNE 13 mph , 20 km/h, Gust: 21 mph , 33 km/h
Temperature: 73°F , 23°C
Dew Point: 68°F , 20°C
Humidity: 83%
Barometer: 1017.3 hPa
Clouds: Mostly cloudy
Visibility: 10 miles , 16 km
Cloud details: Mostly cloudy 1700 ft
2019/07/22 07:35 KWDG 220735Z AUTO 02011G18KT 10SM BKN017 23/20 A3004 RMK AO2 LTG DSNT W
 
KGOK - Guthrie, Oklahoma, USA
Distance from station: SSW 44mi, 71km
Updated: Mon, 07-22-2019 1:53am CDT
Clear
Clear
 Wind from NE
Wind: NE 8 mph , 13 km/h
Temperature: 73°F , 23°C
Dew Point: 70°F , 21°C
Humidity: 89%
Barometer: 1016.3 hPa
Clouds: Clear
Visibility: 10 miles , 16 km
2019/07/22 06:53 KGOK 220653Z AUTO 04007KT 10SM CLR 23/21 A3001 RMK AO2 SLP149 T02330211
KOUN - Norman/Westheime, Oklahoma, USA
Distance from station: SSW 84mi, 136km
Updated: Mon, 07-22-2019 2:35am CDT
Clear
Clear
 Wind from calm
Wind: Calm
Temperature: 81°F , 27°C
Heat Index: 84°F , 29°C
Dew Point: 68°F , 20°C
Humidity: 66%
Barometer: 1015.2 hPa
Clouds: Clear
Visibility: 10 miles , 16 km
2019/07/22 07:35 KOUN 220735Z AUTO 00000KT 10SM CLR 27/20 A2998 RMK AO2 LTG DSNT W T02690204
KOKC - Oklahoma City, Oklahoma, USA
Distance from station: SSW 78mi, 126km
Updated: Mon, 07-22-2019 1:52am CDT
Partly cloudy
Partly cloudy
 Wind from NNW
Wind: NNW 14 mph , 22 km/h
Temperature: 81°F , 27°C
Heat Index: 85°F , 29°C
Dew Point: 70°F , 21°C
Humidity: 70%
Barometer: 1015.6 hPa
Clouds: Partly cloudy
Visibility: 10 miles , 16 km
Cloud details: Few Clouds 10000 ft
Partly cloudy 18000 ft
Partly cloudy 25000 ft
2019/07/22 06:52 KOKC 220652Z 34012KT 10SM FEW100 SCT180 SCT250 27/21 A2999 RMK AO2 SLP134 T02720206
 
KPWA - Okla City/Wiley, Oklahoma, USA
Distance from station: SSW 70mi, 113km
Updated: Mon, 07-22-2019 1:53am CDT
Clear
Clear
 Wind from NNE
Wind: NNE 14 mph , 22 km/h
Temperature: 79°F , 26°C
Dew Point: 70°F , 21°C
Humidity: 74%
Barometer: 1015.9 hPa
Clouds: Clear
Visibility: 10 miles , 16 km
2019/07/22 06:53 KPWA 220653Z AUTO 02012KT 10SM CLR 26/21 A3000 RMK AO2 SLP138 T02610211
KRCE - Okla City/Page, Oklahoma, USA
Distance from station: SW 78mi, 126km
Updated: Mon, 07-22-2019 2:35am CDT
Clear
Clear
 Wind from NNE
Wind: NNE 15 mph , 24 km/h, Gust: 24 mph , 39 km/h
Temperature: 75°F , 24°C
Dew Point: 68°F , 20°C
Humidity: 78%
Barometer: 1016.6 hPa
Clouds: Clear
Visibility: 10 miles , 16 km
2019/07/22 07:35 KRCE 220735Z AUTO 02013G21KT 10SM CLR 24/20 A3002 RMK AO2
KOKM - Okmulgee, Oklahoma, USA
Distance from station: SE 79mi, 127km
Updated: Mon, 07-22-2019 2:35am CDT
Light rain, Partly cloudy
Light rain, Partly cloudy
 Wind from NNE
Wind: NNE 10 mph , 17 km/h
Temperature: 73°F , 23°C
Dew Point: 73°F , 23°C
Humidity: 100%
Barometer: 1015.2 hPa
Summary: Light rain
Clouds: Partly cloudy
Visibility: 10 miles , 16 km
Cloud details: Partly cloudy 11000 ft
2019/07/22 07:35 KOKM 220735Z AUTO 02009KT 10SM -RA SCT110 23/23 A2998 RMK AO2 LTG DSNT NW THRU NE T02310231
 
KPNC - Ponca City, Oklahoma, USA
Distance from station: N 22mi, 36km
Updated: Mon, 07-22-2019 2:12am CDT
Overcast
Overcast
 Wind from NNE
Wind: NNE 13 mph , 20 km/h
Temperature: 75°F , 24°C
Dew Point: 70°F , 21°C
Humidity: 83%
Barometer: 1017.3 hPa
Clouds: Overcast
Visibility: 10 miles , 16 km
Cloud details: Overcast 1400 ft
2019/07/22 07:12 KPNC 220712Z AUTO 02011KT 10SM OVC014 24/21 A3004 RMK AO2 T02390206
KSNL - Shawnee, Oklahoma, USA
Distance from station: S 74mi, 119km
Updated: Mon, 07-22-2019 2:35am CDT
Clear
Clear
 Wind from ENE
Wind: ENE 5 mph , 7 km/h
Temperature: 79°F , 26°C
Dew Point: 68°F , 20°C
Humidity: 70%
Barometer: 1015.6 hPa
Clouds: Clear
Visibility: 10 miles , 16 km
2019/07/22 07:35 KSNL 220735Z AUTO 07004KT 10SM CLR 26/20 A2999 RMK AO2 LTG DSNT W T02600198
KSWO - Stillwater, Oklahoma, USA
Distance from station: S 17mi, 28km
Updated: Mon, 07-22-2019 1:53am CDT
Overcast
Overcast
 Wind from N
Wind: N 8 mph , 13 km/h
Temperature: 77°F , 25°C
Dew Point: 72°F , 22°C
Humidity: 83%
Barometer: 1016.6 hPa
Clouds: Overcast
Visibility: 10 miles , 16 km
Cloud details: Overcast 8500 ft
2019/07/22 06:53 KSWO 220653Z AUTO 01007KT 10SM OVC085 25/22 A3002 RMK AO2 SLP148 T02500217
 
KTIK - Tinker Afb, Oklahoma, USA
Distance from station: SSW 72mi, 115km
Updated: Mon, 07-22-2019 1:56am CDT
Clear
Clear
 Wind from ENE
Wind: ENE 3 mph , 6 km/h
Temperature: 82°F , 28°C
Heat Index: 85°F , 29°C
Dew Point: 68°F , 20°C
Humidity: 62%
Barometer: 1015.6 hPa
Clouds: Clear
Visibility: 10 miles , 16 km
2019/07/22 06:56 KTIK 220656Z AUTO 06003KT 10SM CLR 28/20 A2999 RMK AO2 SLP144 T02790199 $
KTUL - Tulsa, Oklahoma, USA
Distance from station: ESE 65mi, 105km
Updated: Mon, 07-22-2019 2:27am CDT
Overcast
Overcast
 Wind from ESE
Wind: ESE 7 mph , 11 km/h
Temperature: 73°F , 23°C
Dew Point: 72°F , 22°C
Humidity: 94%
Barometer: 1014.9 hPa
Clouds: Overcast
Visibility: 10 miles , 16 km
Cloud details: Partly cloudy 3100 ft
Mostly cloudy 7000 ft
Overcast 10000 ft
2019/07/22 07:27 KTUL 220727Z 11006KT 10SM SCT031 BKN070 OVC100 23/22 A2997 RMK AO2 LTG DSNT ALQDS RAB00E13 TSE06 TS MOV SE P0000 T02280222 $